sensor_id;sensor_type;location;lat;lon;timestamp;P1;durP1;ratioP1;P2;durP2;ratioP2
6527;SDS011;64597;42.664;23.256;2022-12-29T19:40:15;11.50;;;9.35;;
6527;SDS011;64597;42.664;23.256;2022-12-29T19:42:46;14.07;;;9.57;;
6527;SDS011;64597;42.664;23.256;2022-12-29T19:45:12;11.70;;;9.38;;
6527;SDS011;64597;42.664;23.256;2022-12-29T20:04:50;38.55;;;30.95;;
6527;SDS011;64597;42.664;23.256;2022-12-29T20:07:17;46.25;;;33.97;;
6527;SDS011;64597;42.664;23.256;2022-12-29T20:09:43;51.92;;;32.70;;
6527;SDS011;64597;42.664;23.256;2022-12-29T20:12:09;43.83;;;34.00;;
6527;SDS011;64597;42.664;23.256;2022-12-29T20:14:39;43.83;;;30.70;;
6527;SDS011;64597;42.664;23.256;2022-12-29T20:17:05;50.70;;;34.58;;
6527;SDS011;64597;42.664;23.256;2022-12-29T20:19:33;53.65;;;34.78;;
6527;SDS011;64597;42.664;23.256;2022-12-29T20:22:00;52.30;;;34.92;;
6527;SDS011;64597;42.664;23.256;2022-12-29T20:24:26;56.05;;;33.17;;
6527;SDS011;64597;42.664;23.256;2022-12-29T20:26:52;56.35;;;33.95;;
6527;SDS011;64597;42.664;23.256;2022-12-29T20:29:18;55.15;;;35.33;;
6527;SDS011;64597;42.664;23.256;2022-12-29T20:31:44;55.28;;;34.60;;
6527;SDS011;64597;42.664;23.256;2022-12-29T20:34:10;53.75;;;34.80;;
6527;SDS011;64597;42.664;23.256;2022-12-29T20:36:37;39.42;;;24.17;;
6527;SDS011;64597;42.664;23.256;2022-12-29T20:39:06;47.17;;;30.02;;
6527;SDS011;64597;42.664;23.256;2022-12-29T20:41:33;46.25;;;26.83;;
6527;SDS011;64597;42.664;23.256;2022-12-29T20:43:59;44.17;;;30.42;;
6527;SDS011;64597;42.664;23.256;2022-12-29T20:46:26;52.83;;;32.28;;
6527;SDS011;64597;42.664;23.256;2022-12-29T20:48:51;49.92;;;34.67;;
6527;SDS011;64597;42.664;23.256;2022-12-29T20:51:17;53.97;;;35.38;;
6527;SDS011;64597;42.664;23.256;2022-12-29T20:53:45;50.78;;;35.38;;
6527;SDS011;64597;42.664;23.256;2022-12-29T20:56:20;50.08;;;34.33;;
6527;SDS011;64597;42.664;23.256;2022-12-29T20:58:48;50.05;;;33.60;;
6527;SDS011;64597;42.664;23.256;2022-12-29T21:01:15;54.70;;;32.28;;
6527;SDS011;64597;42.664;23.256;2022-12-29T21:03:43;51.45;;;33.85;;
6527;SDS011;64597;42.664;23.256;2022-12-29T21:06:09;58.28;;;37.90;;
6527;SDS011;64597;42.664;23.256;2022-12-29T21:08:35;57.78;;;34.45;;
6527;SDS011;64597;42.664;23.256;2022-12-29T21:11:01;57.03;;;33.90;;
6527;SDS011;64597;42.664;23.256;2022-12-29T21:13:28;60.15;;;35.67;;
6527;SDS011;64597;42.664;23.256;2022-12-29T21:15:55;57.70;;;35.60;;
6527;SDS011;64597;42.664;23.256;2022-12-29T21:18:22;57.90;;;34.78;;
6527;SDS011;64597;42.664;23.256;2022-12-29T21:20:58;58.95;;;34.15;;
6527;SDS011;64597;42.664;23.256;2022-12-29T21:23:31;57.17;;;34.78;;
6527;SDS011;64597;42.664;23.256;2022-12-29T21:25:57;62.92;;;35.65;;
6527;SDS011;64597;42.664;23.256;2022-12-29T21:28:24;63.90;;;34.28;;
6527;SDS011;64597;42.664;23.256;2022-12-29T21:30:50;71.82;;;35.13;;
6527;SDS011;64597;42.664;23.256;2022-12-29T21:33:16;70.22;;;36.83;;
6527;SDS011;64597;42.664;23.256;2022-12-29T21:35:43;64.47;;;34.95;;
6527;SDS011;64597;42.664;23.256;2022-12-29T21:38:09;62.83;;;35.15;;
6527;SDS011;64597;42.664;23.256;2022-12-29T21:40:36;57.78;;;34.67;;
6527;SDS011;64597;42.664;23.256;2022-12-29T21:43:02;60.83;;;34.08;;
6527;SDS011;64597;42.664;23.256;2022-12-29T21:45:29;62.55;;;37.05;;
6527;SDS011;64597;42.664;23.256;2022-12-29T21:50:43;56.38;;;33.35;;
6527;SDS011;64597;42.664;23.256;2022-12-29T21:53:30;67.68;;;35.25;;
6527;SDS011;64597;42.664;23.256;2022-12-29T21:56:04;58.83;;;33.53;;
6527;SDS011;64597;42.664;23.256;2022-12-29T21:58:30;55.10;;;33.08;;
6527;SDS011;64597;42.664;23.256;2022-12-29T22:01:14;65.03;;;35.80;;
6527;SDS011;64597;42.664;23.256;2022-12-29T22:03:58;65.18;;;34.88;;
6527;SDS011;64597;42.664;23.256;2022-12-29T22:06:42;60.67;;;35.20;;
6527;SDS011;64597;42.664;23.256;2022-12-29T22:09:26;57.72;;;33.50;;
6527;SDS011;64597;42.664;23.256;2022-12-29T22:12:10;58.92;;;32.40;;
6527;SDS011;64597;42.664;23.256;2022-12-29T22:14:55;60.50;;;35.47;;
6527;SDS011;64597;42.664;23.256;2022-12-29T22:17:20;66.47;;;32.95;;
6527;SDS011;64597;42.664;23.256;2022-12-29T22:19:46;53.83;;;33.05;;
6527;SDS011;64597;42.664;23.256;2022-12-29T22:22:11;59.95;;;33.30;;
6527;SDS011;64597;42.664;23.256;2022-12-29T22:24:37;59.00;;;30.60;;
6527;SDS011;64597;42.664;23.256;2022-12-29T22:27:02;59.35;;;33.63;;
6527;SDS011;64597;42.664;23.256;2022-12-29T22:29:28;52.53;;;33.22;;
6527;SDS011;64597;42.664;23.256;2022-12-29T22:31:53;50.25;;;27.50;;
6527;SDS011;64597;42.664;23.256;2022-12-29T22:34:19;55.75;;;31.63;;
6527;SDS011;64597;42.664;23.256;2022-12-29T22:36:44;56.58;;;31.58;;
6527;SDS011;64597;42.664;23.256;2022-12-29T22:39:10;59.03;;;33.50;;
6527;SDS011;64597;42.664;23.256;2022-12-29T22:41:35;53.03;;;31.23;;
6527;SDS011;64597;42.664;23.256;2022-12-29T22:44:01;58.70;;;30.83;;
6527;SDS011;64597;42.664;23.256;2022-12-29T22:46:26;57.80;;;33.08;;
6527;SDS011;64597;42.664;23.256;2022-12-29T22:48:52;55.83;;;32.80;;
6527;SDS011;64597;42.664;23.256;2022-12-29T22:51:17;63.25;;;31.83;;
6527;SDS011;64597;42.664;23.256;2022-12-29T22:53:43;53.83;;;30.30;;
6527;SDS011;64597;42.664;23.256;2022-12-29T22:56:12;30.42;;;16.30;;
6527;SDS011;64597;42.664;23.256;2022-12-29T22:58:38;67.07;;;37.92;;
6527;SDS011;64597;42.664;23.256;2022-12-29T23:01:08;59.58;;;36.70;;
6527;SDS011;64597;42.664;23.256;2022-12-29T23:03:34;50.28;;;30.80;;
6527;SDS011;64597;42.664;23.256;2022-12-29T23:06:02;48.42;;;28.15;;
6527;SDS011;64597;42.664;23.256;2022-12-29T23:10:56;47.28;;;29.40;;
6527;SDS011;64597;42.664;23.256;2022-12-29T23:13:21;45.97;;;30.17;;
6527;SDS011;64597;42.664;23.256;2022-12-29T23:15:47;48.45;;;29.83;;
6527;SDS011;64597;42.664;23.256;2022-12-29T23:18:12;50.33;;;30.10;;
6527;SDS011;64597;42.664;23.256;2022-12-29T23:20:39;57.83;;;32.83;;
6527;SDS011;64597;42.664;23.256;2022-12-29T23:23:05;46.10;;;28.88;;
6527;SDS011;64597;42.664;23.256;2022-12-29T23:25:33;52.47;;;29.80;;
6527;SDS011;64597;42.664;23.256;2022-12-29T23:27:59;49.03;;;29.52;;
6527;SDS011;64597;42.664;23.256;2022-12-29T23:30:25;47.90;;;29.08;;
6527;SDS011;64597;42.664;23.256;2022-12-29T23:32:50;52.40;;;30.73;;
6527;SDS011;64597;42.664;23.256;2022-12-29T23:35:16;46.88;;;29.05;;
6527;SDS011;64597;42.664;23.256;2022-12-29T23:37:41;47.88;;;27.58;;
6527;SDS011;64597;42.664;23.256;2022-12-29T23:40:07;47.00;;;28.40;;
6527;SDS011;64597;42.664;23.256;2022-12-29T23:42:32;46.17;;;27.80;;
6527;SDS011;64597;42.664;23.256;2022-12-29T23:44:58;48.42;;;28.98;;
6527;SDS011;64597;42.664;23.256;2022-12-29T23:47:23;46.38;;;26.65;;
6527;SDS011;64597;42.664;23.256;2022-12-29T23:49:48;47.05;;;27.55;;
6527;SDS011;64597;42.664;23.256;2022-12-29T23:52:14;49.88;;;27.60;;
6527;SDS011;64597;42.664;23.256;2022-12-29T23:54:39;45.65;;;27.63;;
6527;SDS011;64597;42.664;23.256;2022-12-29T23:57:05;50.35;;;28.35;;
6527;SDS011;64597;42.664;23.256;2022-12-29T23:59:30;48.95;;;27.77;;
